Time;durP1;ratioP1;P1;durP2;ratioP2;P2;SDS_P1;SDS_P2;PMS_P1;PMS_P2;Temp;Humidity;BMP_temperature;BMP_pressure;BME280_temperature;BME280_humidity;BME280_pressure;Samples;Min_cycle;Max_cycle;Signal;HPM_P1;HPM_P2
2021/08/04 01:16:25;;;;;;;9.73;6.70;;;;;;;26.28;100.00;100869.09;5816232;23;21450;-71
2021/08/04 01:19:47;;;;;;;8.75;6.30;;;;;;;26.02;100.00;100864.94;4898249;29;20541;-72
2021/08/04 01:23:03;;;;;;;12.25;6.78;;;;;;;25.93;100.00;100862.94;4899296;29;20123;-72
2021/08/04 01:25:59;;;;;;;9.65;6.60;;;;;;;25.95;100.00;100861.00;4902076;29;20029;-71
2021/08/04 01:28:49;;;;;;;11.57;6.88;;;;;;;26.27;100.00;100862.00;4905533;29;20434;-72
2021/08/04 01:31:37;;;;;;;10.07;6.75;;;;;;;26.38;100.00;100870.06;4905625;29;20039;-72
2021/08/04 01:34:25;;;;;;;11.13;7.00;;;;;;;26.43;100.00;100863.34;4904728;29;20047;-71
2021/08/04 01:37:11;;;;;;;10.60;7.28;;;;;;;26.32;100.00;100857.97;4904422;29;20159;-72
2021/08/04 01:39:59;;;;;;;15.73;6.63;;;;;;;26.25;100.00;100863.97;4904841;29;20032;-71
2021/08/04 01:42:45;;;;;;;11.27;6.93;;;;;;;26.03;100.00;100869.31;4905155;29;20485;-71
2021/08/04 01:45:31;;;;;;;12.30;7.00;;;;;;;25.60;100.00;100862.88;4905172;29;20033;-71
2021/08/04 01:48:19;;;;;;;9.57;6.88;;;;;;;25.46;100.00;100863.06;4906030;29;20063;-71
2021/08/04 01:51:08;;;;;;;10.88;6.80;;;;;;;25.28;100.00;100865.31;4904728;29;20043;-71
2021/08/04 01:53:54;;;;;;;10.15;6.82;;;;;;;25.10;100.00;100868.50;4905471;29;20036;-71
2021/08/04 01:56:40;;;;;;;8.50;6.82;;;;;;;24.80;100.00;100862.75;4905086;29;20020;-71
2021/08/04 01:59:25;;;;;;;10.10;6.80;;;;;;;24.86;100.00;100865.84;4905454;29;20449;-71
2021/08/04 02:02:23;;;;;;;11.52;6.68;;;;;;;24.84;100.00;100866.91;4904460;29;20347;-71
2021/08/04 02:08:25;;;;;;;9.70;7.90;;;;;;;24.63;100.00;100865.81;4904537;29;20477;-71
2021/08/04 02:11:13;;;;;;;16.67;7.80;;;;;;;24.69;100.00;100871.59;4905259;29;20407;-72
2021/08/04 02:14:20;;;;;;;11.32;7.03;;;;;;;24.78;100.00;100868.22;4905378;29;20028;-71
2021/08/04 02:17:43;;;;;;;10.90;7.45;;;;;;;24.91;100.00;100876.22;4904497;29;20470;-72
2021/08/04 02:39:41;;;;;;;12.85;8.50;;;;;;;24.74;100.00;100906.94;5882460;23;20027;-71
2021/08/04 02:42:28;;;;;;;14.13;8.43;;;;;;;24.74;100.00;100911.44;4920672;29;20044;-71
2021/08/04 02:45:14;;;;;;;10.68;8.45;;;;;;;24.82;100.00;100909.06;4920492;29;20028;-71
2021/08/04 02:48:00;;;;;;;13.85;8.85;;;;;;;24.73;100.00;100921.31;4919742;29;20326;-71
2021/08/04 02:50:50;;;;;;;13.15;9.07;;;;;;;24.81;100.00;100920.75;4920009;29;20024;-71
2021/08/04 02:53:36;;;;;;;17.60;9.95;;;;;;;24.61;100.00;100926.69;4919721;29;20127;-71
2021/08/04 02:56:23;;;;;;;14.80;10.20;;;;;;;24.67;100.00;100923.59;4919515;29;20020;-72
2021/08/04 02:59:08;;;;;;;17.33;10.40;;;;;;;24.65;100.00;100922.81;4920106;29;20032;-71
2021/08/04 03:05:36;;;;;;;18.23;9.23;;;;;;;24.78;100.00;100920.97;4919825;29;20040;-72
2021/08/04 03:08:22;;;;;;;15.07;9.77;;;;;;;24.66;100.00;100921.84;4919251;29;20391;-72
2021/08/04 03:11:08;;;;;;;16.83;10.15;;;;;;;24.83;100.00;100924.19;4920200;29;20020;-70
2021/08/04 03:13:54;;;;;;;13.20;9.75;;;;;;;25.08;100.00;100926.78;4919971;29;20420;-70
2021/08/04 03:16:41;;;;;;;14.27;9.93;;;;;;;25.10;100.00;100923.00;4919498;29;20362;-69
2021/08/04 03:19:27;;;;;;;18.60;10.45;;;;;;;25.38;100.00;100925.38;4919306;29;20072;-69
2021/08/04 03:22:13;;;;;;;17.98;9.85;;;;;;;25.41;100.00;100929.66;4919855;29;20036;-69
2021/08/04 03:24:59;;;;;;;18.17;10.73;;;;;;;25.06;100.00;100929.56;4919267;29;20425;-69
2021/08/04 03:27:46;;;;;;;19.27;11.25;;;;;;;25.29;100.00;100936.81;4920005;29;20040;-70
2021/08/04 10:12:59;;;;;;;14.38;6.80;;;;;;;35.25;49.13;100908.13;5309915;23;20052;-70
2021/08/04 10:15:52;;;;;;;8.88;6.03;;;;;;;34.83;49.66;100896.81;4901969;29;20044;-69
2021/08/04 10:18:40;;;;;;;11.88;6.45;;;;;;;35.20;48.60;100901.53;4902426;29;20041;-69
2021/08/04 10:21:27;;;;;;;10.15;6.47;;;;;;;35.64;48.39;100894.44;4902981;29;20039;-69
2021/08/04 10:24:14;;;;;;;17.27;6.25;;;;;;;35.67;48.14;100890.47;4903226;29;20103;-70
2021/08/04 10:27:00;;;;;;;10.35;5.65;;;;;;;35.21;44.62;100889.59;4902172;29;20097;-69
2021/08/04 10:29:46;;;;;;;10.48;5.80;;;;;;;35.10;44.85;100881.84;4902570;29;20048;-70
2021/08/04 14:34:50;;;;;;;7.50;3.92;;;;;;;36.91;28.96;100721.09;5263083;23;20056;-72
2021/08/04 14:37:39;;;;;;;6.93;4.80;;;;;;;36.69;29.50;100714.81;4901285;29;20037;-73
2021/08/04 14:40:25;;;;;;;12.20;5.00;;;;;;;36.65;30.16;100709.91;4901496;29;20038;-72
2021/08/04 20:47:18;;;;;;;10.85;7.57;;;;;;;30.93;34.57;100783.22;4934892;23;20057;-71
2021/08/04 20:50:04;;;;;;;13.15;7.63;;;;;;;30.67;34.92;100781.41;4898125;29;20037;-71
2021/08/04 20:52:52;;;;;;;11.80;7.53;;;;;;;30.57;35.54;100772.50;4899248;29;20043;-72
2021/08/04 20:55:41;;;;;;;8.73;7.10;;;;;;;30.64;35.40;100787.97;4899541;29;20067;-71
2021/08/04 20:58:27;;;;;;;12.77;7.68;;;;;;;30.54;36.10;100781.75;4899298;29;20484;-72
2021/08/04 21:01:14;;;;;;;10.88;7.65;;;;;;;30.49;36.25;100783.22;4898745;29;20029;-72
2021/08/04 21:03:59;;;;;;;10.70;7.30;;;;;;;30.40;36.32;100781.44;4899397;29;20020;-72
2021/08/04 22:19:17;;;;;;;9.10;5.22;;;;;;;29.86;38.70;100789.50;5147268;23;20044;-71
2021/08/04 22:22:03;;;;;;;12.82;5.47;;;;;;;29.42;39.60;100790.16;4921167;29;20048;-71
2021/08/04 22:24:49;;;;;;;7.10;5.18;;;;;;;29.80;39.43;100788.25;4920808;29;20031;-71
2021/08/04 22:27:34;;;;;;;6.70;5.03;;;;;;;29.72;39.46;100781.84;4901572;29;20040;-71
2021/08/04 22:30:21;;;;;;;7.55;5.10;;;;;;;29.57;40.05;100791.41;4902097;29;20029;-71
2021/08/04 22:33:07;;;;;;;10.07;5.07;;;;;;;29.45;40.26;100784.47;4901216;29;20029;-71
2021/08/04 22:35:53;;;;;;;6.50;4.95;;;;;;;29.56;40.24;100782.44;4901512;29;20046;-71
2021/08/04 22:38:38;;;;;;;10.00;4.95;;;;;;;29.65;39.97;100787.00;4901348;29;20032;-71
2021/08/04 22:41:24;;;;;;;9.25;4.68;;;;;;;29.68;39.56;100781.31;4901101;29;20025;-72
2021/08/04 22:44:10;;;;;;;7.05;4.82;;;;;;;29.55;39.92;100780.75;4901860;29;20037;-72
2021/08/04 22:46:56;;;;;;;6.40;4.63;;;;;;;29.45;40.10;100790.72;4901901;29;20032;-71
2021/08/04 22:49:42;;;;;;;9.48;5.25;;;;;;;29.28;40.98;100786.06;4901262;29;20033;-71
2021/08/04 22:52:27;;;;;;;7.57;4.63;;;;;;;29.39;41.57;100777.81;4901203;29;20036;-72
2021/08/04 22:55:13;;;;;;;9.88;4.63;;;;;;;29.08;42.54;100778.09;4900875;29;20069;-71
2021/08/04 22:58:00;;;;;;;6.55;4.75;;;;;;;29.29;42.01;100778.81;4901291;29;20036;-72
2021/08/04 23:00:46;;;;;;;8.23;4.50;;;;;;;29.25;42.26;100778.22;4901448;29;20039;-72
2021/08/04 23:03:35;;;;;;;7.18;4.15;;;;;;;29.07;42.05;100782.66;4901366;29;20040;-73
2021/08/04 23:06:21;;;;;;;8.75;4.55;;;;;;;29.21;42.23;100790.31;4901209;29;20052;-72
2021/08/04 23:09:06;;;;;;;7.85;4.68;;;;;;;28.85;42.60;100780.22;4901212;29;20032;-71
2021/08/04 23:11:52;;;;;;;6.65;4.13;;;;;;;29.21;42.32;100782.22;4901327;29;20127;-71
2021/08/04 23:14:38;;;;;;;6.00;4.20;;;;;;;29.02;42.85;100779.56;4900694;29;20032;-72
2021/08/04 23:17:24;;;;;;;9.32;4.68;;;;;;;28.92;43.32;100781.34;4901126;29;20056;-71
2021/08/04 23:20:11;;;;;;;9.18;4.32;;;;;;;28.48;44.43;100789.13;4901046;29;20029;-70
2021/08/04 23:22:57;;;;;;;7.72;4.60;;;;;;;28.30;45.22;100778.13;4901418;29;20175;-70
2021/08/04 23:25:43;;;;;;;7.68;4.60;;;;;;;28.26;45.62;100778.53;4900481;29;20084;-70
2021/08/04 23:28:29;;;;;;;6.25;4.20;;;;;;;28.46;45.68;100783.00;4900725;29;20039;-71
2021/08/04 23:31:15;;;;;;;9.93;4.65;;;;;;;28.14;46.04;100775.09;4900696;29;20035;-71
2021/08/04 23:34:00;;;;;;;12.05;4.97;;;;;;;28.45;45.50;100774.06;4901746;29;20033;-71
2021/08/04 23:36:46;;;;;;;10.35;4.60;;;;;;;27.77;47.41;100779.31;4900890;29;20407;-71
